ビリニュス の空港の天気 - METARとTAF

ビリニュス国際空港 ( EYVI / VNO ) - リトアニア ビリニュス
飛行場実況気象(Metar)
観測時間06/18 10:50 EEST (06/18 07:50 UTC)
風向・風速不定 1m/s
視程10km以上
天気現象
なし
気温25℃
湿度41%
気圧1016hPa
METAREYVI 180750Z VRB02KT CAVOK 25/11 Q1016 NOSIG
過去の天気等 Google飛行場航空写真 Wunderground天気予報

過去48時間のMETAR

飛行場予報(TAF)
発表時間: 6/18 08:07 EEST (6/18 05:07 UTC)
予報対象時間: 18日9時 EEST ~ 19日9時 EEST
風向・風速不定 2m/s
視程10km以上
全天の4割程度の積乱雲 雲底高度 1370m
18日14時 EEST ~ 18日19時 EEST に一時的に
風向・風速西 10m/s 瞬間風速 15m/s
視程1000m
天気現象雷雨
全天の4割程度の雲 雲底高度 300m
全天の8割程度の積乱雲 雲底高度 610m
18日21時 EEST ~ 18日23時 EEST に徐々に
風向・風速北西 5m/s
全天の8割程度の雲 雲底高度 1070m
19日5時 EEST ~ 19日8時 EEST に一時的に
全天の8割程度の雲 雲底高度 270m
TAF EYVI 180507Z 1806/1906 VRB04KT 9999 SCT045CB
TEMPO 1811/1816 27020G30KT 1000 TSRA SCT010 BKN020CB
BECMG 1818/1820 32010KT BKN035
TEMPO 1902/1905 BKN009